Share

Elaine, AR (72333)

Clarksdale (KMSCLARK2) Elev 157 ft | 34.10 °N, 90.61 °W | Change Station

Current weather conditions updated 1 second ago

Scattered Clouds
Scattered Clouds
68.4 °F
Feels Like 68.4 °F
N
3.0
Wind Variable Wind from SSE
Gusts 5.0 mph
Sunrise 6:29 AM
Sunset 7:36 PM
Moon Waning Gibbous

Tomorrow is forecast to be Warmer than today.

Pressure 30.19 in
Visibility 10.0 miles
Clouds Scattered Clouds 5000 ft
Dew Point 48 °F
Humidity 49%
Rainfall 0.00 in
Snow Depth Not available.
UV 4 out of 16
Pollen 9.70 out of 12
Air Quality Not available.
Flu Activity Sporadic
METAR KRNV 172115Z AUTO 11009KT 10SM SCT050 20/09 A3019 RMK AO2 T01950094

More Conditions Fewer Conditions

Pressure 30.19 in
Visibility 10.0 miles
Clouds Scattered Clouds 5000 ft
Dew Point 48 °F
Humidity 49%
Rainfall 0.00 in
Snow Depth Not available.
UV 4 out of 16
Pollen 9.70 out of 12
Air Quality Not available.
Flu Activity Sporadic
METAR KRNV 172115Z AUTO 11009KT 10SM SCT050 20/09 A3019 RMK AO2 T01950094

More Conditions Fewer Conditions

10-Day Forecast

Almanac

Astronomy

Apr. 17, 2014 Rise Set
Actual Time 6:29 AM CDT 7:36 PM CDT
Civil Twilight 6:03 AM CDT 8:02 PM CDT
Nautical Twilight 5:32 AM CDT 8:33 PM CDT
Astronomical Twilight 5:01 AM CDT 9:05 PM CDT
Moon 10:17 PM CDT 8:06 AM CDT
Length of Visible Light 13h 58m
Length of Day
13h 07m
Tomorrow will be 2m 1s longer.
Waning Gibbous, 92% of the Moon is Illuminated
Today
Waning Gibbous
Apr 22
Last Quarter
Apr 29
New
May 6
First Quarter
May 14
Full

Today's Extremes

State Highs State Lows

Community

  • Morning Light
    Morning Light
  • New Day
    New Day
  • Lake Michigan Sunrise
    Lake Michigan Sunrise
  • sunset from izmir, narlıdere
    sunset from izmir, narlıdere
  • oregon cherry
    oregon cherry

WunderPhotos

Upload Photos

1,702,140 photos uploaded!

Nearby

Snow Depth

Station Depth Elevation
No new snow has been reported.

Coastal Water Temperatures

Place Temperature
No Stations Reporting

Earthquake Activity

City Distance Mag. Time & Date
No recent earthquake activity has been reported nearby.
Minimum magnitude displayed is 2.5.

Nearby Weather Stations

Station Location Temp. Dew Point Humidity Wind Precip. Elev Updated Type
Clarksdale, Clarksdale, MS 68.4 °F 48 °F 49% SSE  at  3.0 mph 0.00 in / hr 157 ft 4:33 PM CDT Rapid Fire

Show More Stations Show Fewer Stations

What do you think?

We're not finished. Please let us know what you like, what you don't like, and what you are still missing.